createdAt,value
2019-03-13T00:00:39.293Z,25.60
2019-03-13T00:01:25.286Z,25.60
2019-03-13T00:02:17.686Z,25.70
2019-03-13T00:02:56.769Z,25.60
2019-03-13T00:03:35.911Z,25.50
2019-03-13T00:04:15.745Z,25.30
2019-03-13T00:04:54.665Z,25.20
2019-03-13T00:05:34.057Z,25.10
2019-03-13T00:06:13.027Z,25.00
2019-03-13T00:06:51.566Z,24.90
2019-03-13T00:07:29.942Z,24.80
2019-03-13T00:08:08.403Z,24.70
2019-03-13T00:08:47.447Z,24.60
2019-03-13T00:09:26.641Z,24.60
2019-03-13T00:10:05.785Z,24.50
2019-03-13T00:10:45.026Z,24.50
2019-03-13T00:11:24.259Z,24.60
2019-03-13T00:12:03.553Z,24.70
2019-03-13T00:12:41.984Z,24.80
2019-03-13T00:13:22.303Z,24.90
2019-03-13T00:14:00.838Z,25.00
2019-03-13T00:14:39.651Z,25.10
2019-03-13T00:15:18.808Z,25.20
2019-03-13T00:15:57.721Z,25.30
2019-03-13T00:16:36.793Z,25.40
2019-03-13T00:17:15.818Z,25.40
2019-03-13T00:17:55.061Z,25.40
2019-03-13T00:18:33.666Z,25.40
2019-03-13T00:19:12.276Z,25.30
2019-03-13T00:19:50.882Z,25.40
2019-03-13T00:20:29.590Z,25.50
2019-03-13T00:21:08.832Z,25.50
2019-03-13T00:21:48.031Z,25.60
2019-03-13T00:22:27.869Z,25.60
2019-03-13T00:23:07.088Z,25.60
2019-03-13T00:23:46.202Z,25.60
2019-03-13T00:24:24.918Z,25.50
2019-03-13T00:25:04.187Z,25.40
2019-03-13T00:25:42.628Z,25.30
2019-03-13T00:26:21.540Z,25.20
2019-03-13T00:27:00.458Z,25.00
2019-03-13T00:27:39.366Z,25.00
2019-03-13T00:28:17.892Z,24.90
2019-03-13T00:28:56.607Z,24.80
2019-03-13T00:29:35.792Z,24.70
2019-03-13T00:30:15.386Z,24.60
2019-03-13T00:30:54.105Z,24.50
2019-03-13T00:31:33.228Z,24.50
2019-03-13T00:32:14.006Z,24.50
2019-03-13T00:32:52.571Z,24.60
2019-03-13T00:33:31.175Z,24.70
2019-03-13T00:34:10.503Z,24.70
2019-03-13T00:34:49.512Z,24.90
2019-03-13T00:35:28.618Z,25.00
2019-03-13T00:36:07.728Z,25.00
2019-03-13T00:36:46.946Z,25.10
2019-03-13T00:37:25.672Z,25.20
2019-03-13T00:38:04.175Z,25.30
2019-03-13T00:38:43.306Z,25.30
2019-03-13T00:39:21.944Z,25.40
2019-03-13T00:40:01.063Z,25.40
2019-03-13T00:40:39.511Z,25.40
2019-03-13T00:41:21.438Z,25.40
2019-03-13T00:42:00.766Z,25.50
2019-03-13T00:42:39.724Z,25.50
2019-03-13T00:43:18.810Z,25.60
2019-03-13T00:43:57.478Z,25.60
2019-03-13T00:44:36.648Z,25.60
2019-03-13T00:45:16.345Z,25.60
2019-03-13T00:45:55.545Z,25.50
2019-03-13T00:46:34.090Z,25.40
2019-03-13T00:47:12.642Z,25.30
2019-03-13T00:47:51.718Z,25.20
2019-03-13T00:48:31.063Z,25.20
2019-03-13T00:49:10.085Z,25.10
2019-03-13T00:49:48.646Z,25.00
2019-03-13T00:50:31.980Z,24.90
2019-03-13T00:51:11.026Z,24.80
2019-03-13T00:51:49.873Z,24.80
2019-03-13T00:52:28.989Z,24.70
2019-03-13T00:53:08.091Z,24.70
2019-03-13T00:53:47.603Z,24.70
2019-03-13T00:54:27.144Z,24.70
2019-03-13T00:55:05.688Z,24.70
2019-03-13T00:55:45.184Z,24.70
2019-03-13T00:56:23.873Z,24.70
2019-03-13T00:57:02.838Z,24.70
2019-03-13T00:57:42.001Z,24.70
2019-03-13T00:58:25.232Z,24.60
2019-03-13T00:59:02.976Z,24.60
2019-03-13T00:59:41.939Z,24.60
2019-03-13T01:00:36.127Z,24.60
2019-03-13T01:01:38.837Z,24.60
2019-03-13T01:02:38.858Z,24.60
2019-03-13T01:03:42.665Z,24.50
2019-03-13T01:04:39.182Z,24.60
2019-03-13T01:05:36.553Z,24.80
2019-03-13T01:06:19.636Z,24.90
2019-03-13T01:07:04.977Z,25.10
2019-03-13T01:07:43.850Z,25.20
2019-03-13T01:08:22.761Z,25.30
2019-03-13T01:09:01.906Z,25.40
2019-03-13T01:09:43.909Z,25.50
2019-03-13T01:10:24.414Z,25.60
2019-03-13T01:11:03.518Z,25.70
2019-03-13T01:11:42.493Z,25.70
2019-03-13T01:12:22.148Z,25.80
2019-03-13T01:13:01.380Z,25.90
2019-03-13T01:13:40.660Z,25.90
2019-03-13T01:14:19.186Z,26.00
2019-03-13T01:14:57.792Z,26.00
2019-03-13T01:15:36.739Z,26.10
2019-03-13T01:16:15.661Z,26.10
2019-03-13T01:16:54.213Z,26.20
2019-03-13T01:17:33.465Z,26.20
2019-03-13T01:18:13.249Z,26.20
2019-03-13T01:19:09.612Z,26.20
2019-03-13T01:19:49.080Z,26.30
2019-03-13T01:20:31.721Z,26.30
2019-03-13T01:21:10.748Z,26.30
2019-03-13T01:21:50.679Z,26.30
2019-03-13T01:22:29.833Z,26.40
2019-03-13T01:23:08.552Z,26.30
2019-03-13T01:23:47.892Z,26.40
2019-03-13T01:24:26.679Z,26.40
2019-03-13T01:25:05.438Z,26.40
2019-03-13T01:25:44.465Z,26.40
2019-03-13T01:26:23.809Z,26.40
2019-03-13T01:27:03.011Z,26.40
2019-03-13T01:27:42.068Z,26.40
2019-03-13T01:28:21.287Z,26.50
2019-03-13T01:28:59.806Z,26.40
2019-03-13T01:29:39.098Z,26.50
2019-03-13T01:30:19.010Z,26.50
2019-03-13T01:31:08.391Z,26.50
2019-03-13T01:32:03.536Z,26.50
2019-03-13T01:32:58.530Z,26.60
2019-03-13T01:33:37.092Z,26.60
2019-03-13T01:34:43.322Z,26.60
2019-03-13T01:35:40.568Z,26.60
2019-03-13T01:36:19.235Z,26.60
2019-03-13T01:36:57.890Z,26.60
2019-03-13T01:37:36.419Z,26.60
2019-03-13T01:38:16.397Z,26.60
2019-03-13T01:38:55.436Z,26.60
2019-03-13T01:39:34.593Z,26.70
2019-03-13T01:40:14.611Z,26.70
2019-03-13T01:40:53.394Z,26.70
2019-03-13T01:41:32.519Z,26.70
2019-03-13T01:42:12.953Z,26.70
2019-03-13T01:42:52.022Z,26.70
2019-03-13T01:43:31.337Z,26.70
2019-03-13T01:44:10.431Z,26.70
2019-03-13T01:44:49.086Z,26.80
2019-03-13T01:45:27.565Z,26.80
2019-03-13T01:46:06.420Z,26.70
2019-03-13T01:46:45.225Z,26.80
2019-03-13T01:47:24.458Z,26.80
2019-03-13T01:48:03.661Z,26.80
2019-03-13T01:48:42.254Z,26.80
2019-03-13T01:49:21.691Z,26.80
2019-03-13T01:50:00.845Z,26.80
2019-03-13T01:50:39.393Z,26.80
2019-03-13T01:51:18.107Z,26.80
2019-03-13T01:51:56.797Z,26.80
2019-03-13T01:52:35.825Z,26.90
2019-03-13T01:53:14.937Z,26.90
2019-03-13T01:53:54.164Z,26.80
2019-03-13T01:54:33.433Z,26.90
2019-03-13T01:55:12.547Z,26.80
2019-03-13T01:55:51.667Z,26.90
2019-03-13T01:56:30.339Z,26.90
2019-03-13T01:57:09.458Z,26.90
2019-03-13T01:57:48.046Z,26.90
2019-03-13T01:58:27.236Z,26.90
2019-03-13T01:59:06.357Z,26.90
2019-03-13T01:59:45.429Z,26.90
2019-03-13T02:00:25.045Z,26.90
2019-03-13T02:01:04.253Z,26.90
2019-03-13T02:01:43.657Z,26.90
2019-03-13T02:02:22.849Z,26.90
2019-03-13T02:03:02.026Z,27.00
2019-03-13T02:03:40.805Z,26.90
2019-03-13T02:04:19.323Z,27.00
2019-03-13T02:04:58.174Z,27.00
2019-03-13T02:05:37.325Z,27.00
2019-03-13T02:06:15.840Z,27.00
2019-03-13T02:06:54.285Z,27.00
2019-03-13T02:07:33.509Z,27.00
2019-03-13T02:08:12.535Z,27.00
2019-03-13T02:08:51.090Z,27.00
2019-03-13T02:09:29.617Z,27.00
2019-03-13T02:10:08.542Z,27.00
2019-03-13T02:10:47.051Z,27.00
2019-03-13T02:11:26.166Z,27.00
2019-03-13T02:12:05.389Z,27.10
2019-03-13T02:12:44.891Z,27.00
2019-03-13T02:13:24.081Z,27.00
2019-03-13T02:14:02.574Z,27.10
2019-03-13T02:14:41.193Z,27.10
2019-03-13T02:15:22.251Z,27.10
2019-03-13T02:16:00.817Z,27.10
2019-03-13T02:16:39.414Z,27.10
2019-03-13T02:17:17.846Z,27.10
2019-03-13T02:17:56.787Z,27.10
2019-03-13T02:18:36.066Z,27.10
2019-03-13T02:19:15.069Z,27.10
2019-03-13T02:19:54.338Z,27.10
2019-03-13T02:20:33.165Z,27.10
2019-03-13T02:21:11.633Z,27.10
2019-03-13T02:21:50.249Z,27.10
2019-03-13T02:22:29.103Z,27.10
2019-03-13T02:23:26.338Z,27.20
2019-03-13T02:24:05.196Z,27.10
2019-03-13T02:24:43.788Z,27.10
2019-03-13T02:25:22.993Z,27.10
2019-03-13T02:26:01.509Z,27.20
2019-03-13T02:26:40.337Z,27.20
2019-03-13T02:27:18.935Z,27.20
2019-03-13T02:27:57.710Z,27.20
2019-03-13T02:28:36.961Z,27.20
2019-03-13T02:29:16.081Z,27.20
2019-03-13T02:29:54.594Z,27.20
2019-03-13T02:30:33.664Z,27.20
2019-03-13T02:31:12.846Z,27.20
2019-03-13T02:31:51.350Z,27.20
2019-03-13T02:32:30.148Z,27.20
2019-03-13T02:33:09.382Z,27.20
2019-03-13T02:33:48.593Z,27.20
2019-03-13T02:34:28.118Z,27.20
2019-03-13T02:35:10.402Z,27.30
2019-03-13T02:35:49.262Z,27.30
2019-03-13T02:36:29.113Z,27.30
2019-03-13T02:37:08.165Z,27.30
2019-03-13T02:37:47.395Z,27.30
2019-03-13T02:38:27.682Z,27.30
2019-03-13T02:39:07.630Z,27.30
2019-03-13T02:39:46.641Z,27.30
2019-03-13T02:40:28.151Z,27.30
2019-03-13T02:41:06.527Z,27.30
2019-03-13T02:41:45.086Z,27.30
2019-03-13T02:42:24.949Z,27.40
2019-03-13T02:43:03.485Z,27.30
2019-03-13T02:43:42.009Z,27.30
2019-03-13T02:44:20.463Z,27.30
2019-03-13T02:44:59.706Z,27.40
2019-03-13T02:45:38.774Z,27.40
2019-03-13T02:46:17.330Z,27.40
2019-03-13T02:46:56.634Z,27.40
2019-03-13T02:47:35.474Z,27.40
2019-03-13T02:48:14.638Z,27.40
2019-03-13T02:48:53.254Z,27.40
2019-03-13T02:49:31.932Z,27.40
2019-03-13T02:50:10.757Z,27.40
2019-03-13T02:50:49.829Z,27.40
2019-03-13T02:51:28.785Z,27.40
2019-03-13T02:52:07.975Z,27.40
2019-03-13T02:52:46.586Z,27.40
2019-03-13T02:53:25.146Z,27.40
2019-03-13T02:54:04.437Z,27.40
2019-03-13T02:54:43.011Z,27.40
2019-03-13T02:55:22.007Z,27.40
2019-03-13T02:56:01.436Z,27.40
2019-03-13T02:56:40.637Z,27.50
2019-03-13T02:57:20.544Z,27.50
2019-03-13T02:57:59.594Z,27.50
2019-03-13T02:58:38.213Z,27.50
2019-03-13T02:59:16.793Z,27.50
2019-03-13T02:59:55.369Z,27.50
2019-03-13T03:00:52.338Z,27.50
2019-03-13T03:01:46.177Z,27.50
2019-03-13T03:02:47.082Z,27.50
2019-03-13T03:03:37.125Z,27.50
2019-03-13T03:04:15.719Z,27.50
2019-03-13T03:04:54.995Z,27.50
2019-03-13T03:05:34.307Z,27.60
2019-03-13T03:06:12.854Z,27.60
2019-03-13T03:06:52.043Z,27.60
2019-03-13T03:07:31.290Z,27.60
2019-03-13T03:08:10.669Z,27.60
2019-03-13T03:08:49.913Z,27.60
2019-03-13T03:09:28.533Z,27.60
2019-03-13T03:10:08.022Z,27.60
2019-03-13T03:10:46.833Z,27.60
2019-03-13T03:11:25.467Z,27.60
2019-03-13T03:12:04.673Z,27.60
2019-03-13T03:12:43.680Z,27.60
2019-03-13T03:13:22.907Z,27.60
2019-03-13T03:14:01.540Z,27.60
2019-03-13T03:14:42.695Z,27.70
2019-03-13T03:15:21.931Z,27.70
2019-03-13T03:16:01.287Z,27.70
2019-03-13T03:16:40.454Z,27.70
2019-03-13T03:17:19.629Z,27.70
2019-03-13T03:17:58.252Z,27.70
2019-03-13T03:18:36.780Z,27.70
2019-03-13T03:19:15.316Z,27.70
2019-03-13T03:19:54.165Z,27.70
2019-03-13T03:20:33.222Z,27.70
2019-03-13T03:21:12.354Z,27.70
2019-03-13T03:21:51.477Z,27.70
2019-03-13T03:22:30.755Z,27.70
2019-03-13T03:23:09.828Z,27.70
2019-03-13T03:23:49.087Z,27.70
2019-03-13T03:24:28.368Z,27.70
2019-03-13T03:25:06.838Z,27.80
2019-03-13T03:25:45.449Z,27.80
2019-03-13T03:26:24.215Z,27.80
2019-03-13T03:27:03.323Z,27.80
2019-03-13T03:27:42.347Z,27.80
2019-03-13T03:28:21.517Z,27.80
2019-03-13T03:29:00.119Z,27.80
2019-03-13T03:29:39.395Z,27.80
2019-03-13T03:30:20.560Z,27.80
2019-03-13T03:30:59.027Z,27.80
2019-03-13T03:31:37.597Z,27.80
2019-03-13T03:32:16.525Z,27.80
2019-03-13T03:32:55.423Z,27.80
2019-03-13T03:33:34.318Z,27.80
2019-03-13T03:34:13.066Z,27.80
2019-03-13T03:34:52.348Z,27.80
2019-03-13T03:35:31.543Z,27.80
2019-03-13T03:36:10.907Z,27.90
2019-03-13T03:36:50.533Z,27.90
2019-03-13T03:37:29.139Z,27.90
2019-03-13T03:38:07.970Z,27.90
2019-03-13T03:38:49.619Z,27.90
2019-03-13T03:39:28.095Z,27.90
2019-03-13T03:40:06.738Z,27.90
2019-03-13T03:40:45.334Z,27.90
2019-03-13T03:41:24.651Z,27.90
2019-03-13T03:42:03.650Z,27.90
2019-03-13T03:42:42.102Z,27.90
2019-03-13T03:43:21.017Z,27.90
2019-03-13T03:43:59.567Z,27.90
2019-03-13T03:44:38.875Z,28.00
2019-03-13T03:45:17.477Z,27.90
2019-03-13T03:45:56.299Z,28.00
2019-03-13T03:46:36.259Z,28.00
2019-03-13T03:47:15.311Z,28.00
2019-03-13T03:47:54.299Z,28.00
2019-03-13T03:48:32.902Z,28.00
2019-03-13T03:49:12.014Z,28.00
2019-03-13T03:49:51.039Z,28.00
2019-03-13T03:50:30.254Z,28.00
2019-03-13T03:51:08.770Z,28.00
2019-03-13T03:51:47.370Z,28.00
2019-03-13T03:52:26.379Z,28.00
2019-03-13T03:53:05.567Z,28.00
2019-03-13T03:53:44.766Z,28.10
2019-03-13T03:54:23.883Z,28.10
2019-03-13T03:55:03.259Z,28.10
2019-03-13T03:55:42.322Z,28.10
2019-03-13T03:56:20.886Z,28.10
2019-03-13T03:56:59.816Z,28.10
2019-03-13T03:57:39.110Z,28.10
2019-03-13T03:58:17.576Z,28.10
2019-03-13T03:58:56.501Z,28.10
2019-03-13T03:59:35.079Z,28.10
2019-03-13T04:00:14.675Z,28.10
2019-03-13T04:00:53.766Z,28.10
2019-03-13T04:01:32.289Z,28.10
2019-03-13T04:02:10.850Z,28.10
2019-03-13T04:02:49.825Z,28.10
2019-03-13T04:03:28.283Z,28.10
2019-03-13T04:04:07.142Z,28.20
2019-03-13T04:04:46.014Z,28.20
2019-03-13T04:05:25.005Z,28.20
2019-03-13T04:06:04.458Z,28.20
2019-03-13T04:06:47.773Z,28.20
2019-03-13T04:07:26.850Z,28.20
2019-03-13T04:08:05.310Z,28.20
2019-03-13T04:08:44.620Z,28.20
2019-03-13T04:09:23.775Z,28.20
2019-03-13T04:10:02.320Z,28.20
2019-03-13T04:10:40.873Z,28.20
2019-03-13T04:11:20.016Z,28.20
2019-03-13T04:11:58.681Z,28.30
2019-03-13T04:12:37.735Z,28.30
2019-03-13T04:13:19.249Z,28.20
2019-03-13T04:13:58.129Z,28.30
2019-03-13T04:14:37.286Z,28.30
2019-03-13T04:15:16.626Z,28.30
2019-03-13T04:15:55.861Z,28.30
2019-03-13T04:17:00.643Z,28.30
2019-03-13T04:17:57.459Z,28.30
2019-03-13T04:18:36.904Z,28.30
2019-03-13T04:19:15.970Z,28.30
2019-03-13T04:19:55.321Z,28.30
2019-03-13T04:20:34.632Z,28.30
2019-03-13T04:21:13.235Z,28.30
2019-03-13T04:21:52.454Z,28.30
2019-03-13T04:22:31.004Z,28.40
2019-03-13T04:23:10.332Z,28.40
2019-03-13T04:23:49.486Z,28.40
2019-03-13T04:24:29.326Z,28.30
2019-03-13T04:25:34.287Z,28.40
2019-03-13T04:26:13.495Z,28.40
2019-03-13T04:26:52.553Z,28.40
2019-03-13T04:27:31.104Z,28.40
2019-03-13T04:28:10.291Z,28.40
2019-03-13T04:29:09.230Z,28.40
2019-03-13T04:29:48.542Z,28.40
2019-03-13T04:30:27.645Z,28.40
2019-03-13T04:31:06.879Z,28.40
2019-03-13T04:31:46.112Z,28.40
2019-03-13T04:32:25.599Z,28.50
2019-03-13T04:33:04.784Z,28.50
2019-03-13T04:33:43.312Z,28.40
2019-03-13T04:34:23.110Z,28.50
2019-03-13T04:35:01.581Z,28.50
2019-03-13T04:35:40.145Z,28.50
2019-03-13T04:36:19.206Z,28.50
2019-03-13T04:36:57.744Z,28.50
2019-03-13T04:37:37.173Z,28.50
2019-03-13T04:38:15.896Z,28.50
2019-03-13T04:38:55.006Z,28.50
2019-03-13T04:39:34.218Z,28.60
2019-03-13T04:40:13.540Z,28.50
2019-03-13T04:40:52.114Z,28.50
2019-03-13T04:41:32.722Z,28.60
2019-03-13T04:42:11.965Z,28.50
2019-03-13T04:42:50.829Z,28.60
2019-03-13T04:43:29.749Z,28.60
2019-03-13T04:44:09.049Z,28.60
2019-03-13T04:44:48.305Z,28.60
2019-03-13T04:45:27.521Z,28.60
2019-03-13T04:46:06.698Z,28.60
2019-03-13T04:46:45.813Z,28.60
2019-03-13T04:47:25.121Z,28.60
2019-03-13T04:48:04.276Z,28.60
2019-03-13T04:48:42.768Z,28.60
2019-03-13T04:49:21.302Z,28.60
2019-03-13T04:50:00.484Z,28.60
2019-03-13T04:50:39.797Z,28.60
2019-03-13T04:51:18.805Z,28.60
2019-03-13T04:51:57.969Z,28.60
2019-03-13T04:52:37.429Z,28.60
2019-03-13T04:53:15.958Z,28.70
2019-03-13T04:53:54.528Z,28.70
2019-03-13T04:54:33.940Z,28.70
2019-03-13T04:55:13.054Z,28.70
2019-03-13T04:55:52.669Z,28.70
2019-03-13T04:56:32.484Z,28.70
2019-03-13T04:57:11.258Z,28.70
2019-03-13T04:57:50.137Z,28.70
2019-03-13T04:58:29.263Z,28.70
2019-03-13T04:59:08.150Z,28.70
2019-03-13T04:59:48.426Z,28.70
2019-03-13T05:00:26.951Z,28.70
2019-03-13T05:01:05.482Z,28.70
2019-03-13T05:01:46.674Z,28.80
2019-03-13T05:02:25.181Z,28.70
2019-03-13T05:03:03.641Z,28.80
2019-03-13T05:03:42.391Z,28.80
2019-03-13T05:04:21.394Z,28.80
2019-03-13T05:05:00.523Z,28.80
2019-03-13T05:05:53.213Z,28.80
2019-03-13T05:06:31.983Z,28.80
2019-03-13T05:07:11.259Z,28.80
2019-03-13T05:07:50.513Z,28.80
2019-03-13T05:09:01.858Z,28.80
2019-03-13T05:09:42.426Z,28.80
2019-03-13T05:10:23.402Z,28.80
2019-03-13T05:11:01.975Z,28.80
2019-03-13T05:11:41.217Z,28.90
2019-03-13T05:12:22.690Z,28.80
2019-03-13T05:13:01.864Z,28.80
2019-03-13T05:13:41.674Z,28.90
2019-03-13T05:14:22.525Z,28.90
2019-03-13T05:15:01.502Z,28.90
2019-03-13T05:15:40.705Z,28.90
2019-03-13T05:16:19.117Z,28.90
2019-03-13T05:16:58.533Z,28.90
2019-03-13T05:17:37.781Z,28.90
2019-03-13T05:18:16.353Z,28.90
2019-03-13T05:18:54.865Z,28.90
2019-03-13T05:19:33.874Z,28.90
2019-03-13T05:20:13.793Z,28.90
2019-03-13T05:20:52.371Z,28.90
2019-03-13T05:21:31.068Z,29.00
2019-03-13T05:22:11.409Z,29.00
2019-03-13T05:22:49.945Z,29.00
2019-03-13T05:23:28.999Z,29.00
2019-03-13T05:24:08.869Z,29.00
2019-03-13T05:24:47.302Z,29.00
2019-03-13T05:25:25.879Z,29.00
2019-03-13T05:26:04.625Z,29.00
2019-03-13T05:26:43.354Z,29.00
2019-03-13T05:27:22.658Z,29.00
2019-03-13T05:28:01.076Z,29.00
2019-03-13T05:28:39.966Z,29.00
2019-03-13T05:29:19.205Z,29.00
2019-03-13T05:29:57.687Z,29.00
2019-03-13T05:30:37.284Z,29.00
2019-03-13T05:31:16.358Z,29.00
2019-03-13T05:31:55.440Z,29.00
2019-03-13T05:32:34.454Z,29.10
2019-03-13T05:33:12.997Z,29.10
2019-03-13T05:33:51.837Z,29.10
2019-03-13T05:34:31.026Z,29.10
2019-03-13T05:35:10.164Z,29.10
2019-03-13T05:35:48.670Z,29.10
2019-03-13T05:36:27.171Z,29.10
2019-03-13T05:37:05.714Z,29.10
2019-03-13T05:37:44.460Z,29.10
2019-03-13T05:38:25.160Z,29.10
2019-03-13T05:39:05.429Z,29.10
2019-03-13T05:39:44.377Z,29.10
2019-03-13T05:40:23.477Z,29.10
2019-03-13T05:41:02.576Z,29.10
2019-03-13T05:41:41.577Z,29.10
2019-03-13T05:42:20.610Z,29.20
2019-03-13T05:42:59.106Z,29.20
2019-03-13T05:43:37.565Z,29.20
2019-03-13T05:44:16.061Z,29.20
2019-03-13T05:44:55.064Z,29.20
2019-03-13T05:45:34.417Z,29.20
2019-03-13T05:46:13.745Z,29.20
2019-03-13T05:46:52.786Z,29.20
2019-03-13T05:47:31.914Z,29.20
2019-03-13T05:48:11.328Z,29.20
2019-03-13T05:48:49.645Z,29.20
2019-03-13T05:49:28.597Z,29.20
2019-03-13T05:50:09.426Z,29.20
2019-03-13T05:50:48.237Z,29.20
2019-03-13T05:51:26.862Z,29.20
2019-03-13T05:52:05.274Z,29.20
2019-03-13T05:52:45.650Z,29.20
2019-03-13T05:53:24.889Z,29.30
2019-03-13T05:54:03.736Z,29.30
2019-03-13T05:54:42.137Z,29.30
2019-03-13T05:55:21.091Z,29.20
2019-03-13T05:55:59.852Z,29.20
2019-03-13T05:56:40.717Z,29.30
2019-03-13T05:57:18.321Z,29.30
2019-03-13T05:57:57.069Z,29.30
2019-03-13T05:58:35.929Z,29.30
2019-03-13T05:59:15.167Z,29.30
2019-03-13T05:59:54.081Z,29.30
2019-03-13T06:00:33.362Z,29.30
2019-03-13T06:01:12.430Z,29.30
2019-03-13T06:01:51.581Z,29.30
2019-03-13T06:02:30.086Z,29.30
2019-03-13T06:03:08.564Z,29.30
2019-03-13T06:03:47.383Z,29.30
2019-03-13T06:04:26.077Z,29.30
2019-03-13T06:05:05.168Z,29.40
2019-03-13T06:05:44.233Z,29.30
2019-03-13T06:06:24.738Z,29.40
2019-03-13T06:07:03.790Z,29.40
2019-03-13T06:07:42.765Z,29.40
2019-03-13T06:08:21.945Z,29.40
2019-03-13T06:09:00.373Z,29.40
2019-03-13T06:09:39.581Z,29.40
2019-03-13T06:10:18.137Z,29.40
2019-03-13T06:10:57.887Z,29.40
2019-03-13T06:11:40.275Z,29.40
2019-03-13T06:12:18.717Z,29.40
2019-03-13T06:12:57.389Z,29.40
2019-03-13T06:13:36.303Z,29.40
2019-03-13T06:14:15.463Z,29.40
2019-03-13T06:14:53.939Z,29.50
2019-03-13T06:15:32.911Z,29.50
2019-03-13T06:16:12.133Z,29.50
2019-03-13T06:16:50.801Z,29.50
2019-03-13T06:17:29.953Z,29.50
2019-03-13T06:18:09.823Z,29.50
2019-03-13T06:18:48.726Z,29.50
2019-03-13T06:19:28.216Z,29.50
2019-03-13T06:20:10.746Z,29.50
2019-03-13T06:20:52.300Z,29.50
2019-03-13T06:21:31.322Z,29.50
2019-03-13T06:22:09.751Z,29.50
2019-03-13T06:22:48.341Z,29.50
2019-03-13T06:23:27.456Z,29.50
2019-03-13T06:24:06.438Z,29.50
2019-03-13T06:24:48.653Z,29.50
2019-03-13T06:25:27.742Z,29.60
2019-03-13T06:26:06.786Z,29.60
2019-03-13T06:26:46.582Z,29.60
2019-03-13T06:27:25.813Z,29.60
2019-03-13T06:28:05.145Z,29.60
2019-03-13T06:28:44.471Z,29.60
2019-03-13T06:29:24.823Z,29.60
2019-03-13T06:30:03.435Z,29.60
2019-03-13T06:30:43.174Z,29.60
2019-03-13T06:31:22.815Z,29.60
2019-03-13T06:32:01.408Z,29.60
2019-03-13T06:32:40.946Z,29.60
2019-03-13T06:33:22.320Z,29.60
2019-03-13T06:34:02.656Z,29.60
2019-03-13T06:34:41.558Z,29.60
2019-03-13T06:35:23.416Z,29.60
2019-03-13T06:36:01.271Z,29.60
2019-03-13T06:36:40.397Z,29.70
2019-03-13T06:37:23.313Z,29.70
2019-03-13T06:38:02.307Z,29.60
2019-03-13T06:38:40.851Z,29.70
2019-03-13T06:39:19.681Z,29.70
2019-03-13T06:40:01.957Z,29.70
2019-03-13T06:40:45.332Z,29.70
2019-03-13T06:41:24.615Z,29.70
2019-03-13T06:42:03.166Z,29.70
2019-03-13T06:42:42.435Z,29.70
2019-03-13T06:43:22.247Z,29.70
2019-03-13T06:44:01.337Z,29.70
2019-03-13T06:44:40.207Z,29.70
2019-03-13T06:45:19.019Z,29.80
2019-03-13T06:46:02.161Z,29.70
2019-03-13T06:46:42.464Z,29.70
2019-03-13T06:47:21.030Z,29.80
2019-03-13T06:47:59.784Z,29.70
2019-03-13T06:48:41.706Z,29.70
2019-03-13T06:49:20.764Z,29.80
2019-03-13T06:50:02.046Z,29.70
2019-03-13T06:50:43.434Z,29.70
2019-03-13T06:51:21.954Z,29.80
2019-03-13T06:52:00.386Z,29.80
2019-03-13T06:52:39.358Z,29.80
2019-03-13T06:53:18.554Z,29.80
2019-03-13T06:53:57.462Z,29.80
2019-03-13T06:54:40.046Z,29.80
2019-03-13T06:55:19.382Z,29.80
2019-03-13T06:55:57.944Z,29.80
2019-03-13T06:56:36.378Z,29.80
2019-03-13T06:57:15.658Z,29.80
2019-03-13T06:57:54.258Z,29.80
2019-03-13T06:58:40.835Z,29.80
2019-03-13T06:59:31.573Z,29.80
2019-03-13T07:00:29.593Z,29.80
2019-03-13T07:01:25.510Z,29.80
2019-03-13T07:02:16.316Z,29.90
2019-03-13T07:03:05.767Z,29.80
2019-03-13T07:04:02.587Z,29.90
2019-03-13T07:04:57.126Z,29.90
2019-03-13T07:05:53.540Z,29.90
2019-03-13T07:06:55.963Z,29.80
2019-03-13T07:07:50.986Z,29.90
2019-03-13T07:08:57.301Z,30.10
2019-03-13T07:10:09.794Z,30.10
2019-03-13T07:10:58.059Z,30.10
2019-03-13T07:11:48.627Z,30.20
2019-03-13T07:12:42.818Z,30.20
2019-03-13T07:13:42.503Z,30.20
2019-03-13T07:14:46.194Z,30.20
2019-03-13T07:15:39.587Z,30.20
2019-03-13T07:16:34.916Z,30.20
2019-03-13T07:17:30.899Z,30.20
2019-03-13T07:18:23.355Z,30.10
2019-03-13T07:19:20.501Z,30.10
2019-03-13T07:20:23.073Z,30.10
2019-03-13T07:21:23.215Z,30.10
2019-03-13T07:22:33.326Z,30.10
2019-03-13T07:23:29.799Z,30.10
2019-03-13T07:24:27.850Z,30.10
2019-03-13T07:25:25.236Z,30.10
2019-03-13T07:26:20.431Z,30.10
2019-03-13T07:27:09.678Z,30.10
2019-03-13T07:28:05.812Z,30.10
2019-03-13T07:29:11.981Z,30.10
2019-03-13T07:30:10.137Z,30.10
2019-03-13T07:31:10.196Z,30.10
2019-03-13T07:32:13.638Z,30.10
2019-03-13T07:33:08.422Z,30.10
2019-03-13T07:34:07.950Z,30.10
2019-03-13T07:35:10.764Z,30.10
2019-03-13T07:36:13.894Z,30.10
2019-03-13T07:37:06.100Z,30.10
2019-03-13T07:38:23.392Z,30.10
2019-03-13T07:39:30.101Z,30.10
2019-03-13T07:40:38.983Z,30.20
2019-03-13T07:41:36.313Z,30.20
2019-03-13T07:42:45.216Z,30.10
2019-03-13T07:43:53.897Z,30.20
2019-03-13T07:44:43.509Z,30.20
2019-03-13T07:45:41.947Z,30.20
2019-03-13T07:46:36.162Z,30.20
2019-03-13T07:47:23.981Z,30.20
2019-03-13T07:48:34.196Z,30.20
2019-03-13T07:49:23.252Z,30.20
2019-03-13T07:50:23.023Z,30.20
2019-03-13T07:51:19.267Z,30.20
2019-03-13T07:52:18.368Z,30.20
2019-03-13T07:53:22.132Z,30.20
2019-03-13T07:54:18.260Z,30.20
2019-03-13T07:55:26.197Z,30.20
2019-03-13T07:56:14.486Z,30.30
2019-03-13T07:57:11.025Z,30.30
2019-03-13T07:58:08.882Z,30.20
2019-03-13T07:59:13.988Z,30.30
2019-03-13T08:00:08.626Z,30.30
2019-03-13T08:01:05.146Z,30.30
2019-03-13T08:02:04.998Z,30.30
2019-03-13T08:03:08.856Z,30.30
2019-03-13T08:04:15.968Z,30.30
2019-03-13T08:05:13.003Z,30.30
2019-03-13T08:06:13.022Z,30.30
2019-03-13T08:07:19.343Z,30.30
2019-03-13T08:08:09.716Z,30.30
2019-03-13T08:09:04.662Z,30.30
2019-03-13T08:10:00.427Z,30.30
2019-03-13T08:11:11.782Z,30.30
2019-03-13T08:12:08.542Z,30.30
2019-03-13T08:13:03.941Z,30.30
2019-03-13T08:14:03.845Z,30.30
2019-03-13T08:15:06.401Z,30.40
2019-03-13T08:15:58.754Z,30.30
2019-03-13T08:17:04.681Z,30.40
2019-03-13T08:17:53.806Z,30.30
2019-03-13T08:18:43.378Z,30.30
2019-03-13T08:19:52.674Z,30.40
2019-03-13T08:20:55.315Z,30.30
2019-03-13T08:21:52.229Z,30.40
2019-03-13T08:22:37.499Z,30.40
2019-03-13T08:23:34.780Z,30.40
2019-03-13T08:24:29.506Z,30.40
2019-03-13T08:25:29.361Z,30.40
2019-03-13T08:26:14.705Z,30.40
2019-03-13T08:27:10.890Z,30.40
2019-03-13T08:28:07.721Z,30.40
2019-03-13T08:29:11.326Z,30.40
2019-03-13T08:30:01.790Z,30.40
2019-03-13T08:31:11.020Z,30.40
2019-03-13T08:32:07.505Z,30.40
2019-03-13T08:32:54.296Z,30.40
2019-03-13T08:34:03.173Z,30.40
2019-03-13T08:34:47.991Z,30.40
2019-03-13T08:35:48.346Z,30.50
2019-03-13T08:36:45.107Z,30.50
2019-03-13T08:37:54.330Z,30.50
2019-03-13T08:38:39.888Z,30.50
2019-03-13T08:39:35.451Z,30.40
2019-03-13T08:40:21.580Z,30.50
2019-03-13T08:41:18.431Z,30.50
2019-03-13T08:42:07.582Z,30.50
2019-03-13T08:42:56.419Z,30.50
2019-03-13T08:43:41.694Z,30.50
2019-03-13T08:44:30.323Z,30.50
2019-03-13T08:45:31.389Z,30.50
2019-03-13T08:46:31.132Z,30.50
2019-03-13T08:47:31.129Z,30.50
2019-03-13T08:48:40.208Z,30.50
2019-03-13T08:49:35.664Z,30.50
2019-03-13T08:50:33.157Z,30.50
2019-03-13T08:51:30.199Z,30.60
2019-03-13T08:52:24.799Z,30.60
2019-03-13T08:53:33.582Z,30.50
2019-03-13T08:54:29.501Z,30.50
2019-03-13T08:55:26.123Z,30.60
2019-03-13T08:56:13.180Z,30.60
2019-03-13T08:57:16.515Z,30.60
2019-03-13T08:58:16.692Z,30.60
2019-03-13T08:59:13.598Z,30.60
2019-03-13T09:00:08.690Z,30.60
2019-03-13T09:01:00.321Z,30.60
2019-03-13T09:02:03.128Z,30.60
2019-03-13T09:02:52.325Z,30.60
2019-03-13T09:03:47.939Z,30.60
2019-03-13T09:04:47.317Z,30.60
2019-03-13T09:05:44.074Z,30.60
2019-03-13T09:06:41.100Z,30.60
2019-03-13T09:07:38.386Z,30.60
2019-03-13T09:08:34.808Z,30.60
2019-03-13T09:09:24.946Z,30.60
2019-03-13T09:10:31.609Z,30.60
2019-03-13T09:11:31.615Z,30.60
2019-03-13T09:12:28.789Z,30.60
2019-03-13T09:13:32.331Z,30.60
2019-03-13T09:14:27.783Z,30.70
2019-03-13T09:15:25.328Z,30.70
2019-03-13T09:16:10.962Z,30.60
2019-03-13T09:17:10.663Z,30.70